Terminal Aerodrome Forecast
Issued by NWS

Home | Current Version | Previous Version | Text Only | Print | Product List | Glossary On
Versions: 1 2 3 4 5 6 7 8 9 10 11 12 13 14 15 16 17
000
FTUS43 KMQT 062336
TAFSAW
TAF
KSAW 062336Z 0700/0724 27008KT P6SM SCT200
     FM070700 23005KT P6SM BKN100
     FM070900 23005KT 6SM -SN BKN080
     FM071100 21005KT 2SM -SN OVC025
     FM071400 25006KT P6SM BKN020=

USA.gov is the U.S. government's official web portal to all federal, state and local government web resources and services.